sensor_id;sensor_type;location;lat;lon;timestamp;P1;durP1;ratioP1;P2;durP2;ratioP2
59074;SDS011;44860;53.020;6.738;2024-03-02T00:00:00;4.93;;;3.80;;
59074;SDS011;44860;53.020;6.738;2024-03-02T00:02:41;7.10;;;4.13;;
59074;SDS011;44860;53.020;6.738;2024-03-02T00:05:07;5.95;;;4.60;;
59074;SDS011;44860;53.020;6.738;2024-03-02T00:07:36;6.22;;;4.07;;
59074;SDS011;44860;53.020;6.738;2024-03-02T00:10:04;7.13;;;4.50;;
59074;SDS011;44860;53.020;6.738;2024-03-02T00:12:36;5.10;;;4.13;;
59074;SDS011;44860;53.020;6.738;2024-03-02T00:15:04;7.13;;;4.30;;
59074;SDS011;44860;53.020;6.738;2024-03-02T00:17:55;6.78;;;4.32;;
59074;SDS011;44860;53.020;6.738;2024-03-02T00:20:22;5.88;;;3.95;;
59074;SDS011;44860;53.020;6.738;2024-03-02T00:22:51;5.38;;;4.40;;
59074;SDS011;44860;53.020;6.738;2024-03-02T00:25:17;5.35;;;4.05;;
59074;SDS011;44860;53.020;6.738;2024-03-02T00:27:47;6.60;;;4.38;;
59074;SDS011;44860;53.020;6.738;2024-03-02T00:33:00;5.72;;;4.50;;
59074;SDS011;44860;53.020;6.738;2024-03-02T00:35:26;6.22;;;4.82;;
59074;SDS011;44860;53.020;6.738;2024-03-02T00:37:52;6.40;;;4.68;;
59074;SDS011;44860;53.020;6.738;2024-03-02T00:40:17;7.78;;;4.93;;
59074;SDS011;44860;53.020;6.738;2024-03-02T00:42:44;6.57;;;4.68;;
59074;SDS011;44860;53.020;6.738;2024-03-02T00:45:09;6.15;;;4.63;;
59074;SDS011;44860;53.020;6.738;2024-03-02T00:47:38;6.75;;;4.70;;
59074;SDS011;44860;53.020;6.738;2024-03-02T00:50:05;7.20;;;4.80;;
59074;SDS011;44860;53.020;6.738;2024-03-02T00:52:31;5.50;;;4.70;;
59074;SDS011;44860;53.020;6.738;2024-03-02T00:54:58;6.63;;;4.35;;
59074;SDS011;44860;53.020;6.738;2024-03-02T00:57:24;5.95;;;4.80;;
59074;SDS011;44860;53.020;6.738;2024-03-02T00:59:51;5.63;;;4.68;;
59074;SDS011;44860;53.020;6.738;2024-03-02T01:02:17;6.43;;;4.70;;
59074;SDS011;44860;53.020;6.738;2024-03-02T01:04:45;6.75;;;4.78;;
59074;SDS011;44860;53.020;6.738;2024-03-02T01:07:10;6.35;;;4.75;;
59074;SDS011;44860;53.020;6.738;2024-03-02T01:09:36;6.60;;;5.00;;
59074;SDS011;44860;53.020;6.738;2024-03-02T01:12:02;6.10;;;4.90;;
59074;SDS011;44860;53.020;6.738;2024-03-02T01:14:28;8.48;;;5.43;;
59074;SDS011;44860;53.020;6.738;2024-03-02T01:16:53;6.45;;;5.00;;
59074;SDS011;44860;53.020;6.738;2024-03-02T01:19:19;6.55;;;5.22;;
59074;SDS011;44860;53.020;6.738;2024-03-02T01:21:45;6.10;;;5.10;;
59074;SDS011;44860;53.020;6.738;2024-03-02T01:24:11;8.57;;;5.25;;
59074;SDS011;44860;53.020;6.738;2024-03-02T01:26:38;7.10;;;5.03;;
59074;SDS011;44860;53.020;6.738;2024-03-02T01:29:03;7.05;;;5.32;;
59074;SDS011;44860;53.020;6.738;2024-03-02T01:31:29;7.13;;;5.40;;
59074;SDS011;44860;53.020;6.738;2024-03-02T01:33:55;7.63;;;5.68;;
59074;SDS011;44860;53.020;6.738;2024-03-02T01:36:21;6.50;;;4.95;;
59074;SDS011;44860;53.020;6.738;2024-03-02T01:38:46;6.53;;;4.80;;
59074;SDS011;44860;53.020;6.738;2024-03-02T01:41:12;6.82;;;5.10;;
59074;SDS011;44860;53.020;6.738;2024-03-02T01:43:38;6.38;;;4.88;;
59074;SDS011;44860;53.020;6.738;2024-03-02T01:46:04;9.40;;;5.03;;
59074;SDS011;44860;53.020;6.738;2024-03-02T01:48:29;7.30;;;4.90;;
59074;SDS011;44860;53.020;6.738;2024-03-02T01:50:55;7.15;;;5.03;;
59074;SDS011;44860;53.020;6.738;2024-03-02T01:53:21;8.20;;;4.80;;
59074;SDS011;44860;53.020;6.738;2024-03-02T01:55:47;6.60;;;4.97;;
59074;SDS011;44860;53.020;6.738;2024-03-02T01:58:12;7.22;;;5.05;;
59074;SDS011;44860;53.020;6.738;2024-03-02T02:00:38;7.03;;;4.75;;
59074;SDS011;44860;53.020;6.738;2024-03-02T02:03:04;7.93;;;4.65;;
59074;SDS011;44860;53.020;6.738;2024-03-02T02:05:29;7.35;;;4.78;;
59074;SDS011;44860;53.020;6.738;2024-03-02T02:07:56;6.43;;;4.95;;
59074;SDS011;44860;53.020;6.738;2024-03-02T02:10:23;6.65;;;5.07;;
59074;SDS011;44860;53.020;6.738;2024-03-02T02:12:49;6.57;;;4.85;;
59074;SDS011;44860;53.020;6.738;2024-03-02T02:15:24;6.57;;;4.55;;
59074;SDS011;44860;53.020;6.738;2024-03-02T02:17:51;6.32;;;4.50;;
59074;SDS011;44860;53.020;6.738;2024-03-02T02:20:17;6.82;;;4.95;;
59074;SDS011;44860;53.020;6.738;2024-03-02T02:23:00;6.22;;;4.40;;
59074;SDS011;44860;53.020;6.738;2024-03-02T02:25:27;6.00;;;4.72;;
59074;SDS011;44860;53.020;6.738;2024-03-02T02:27:53;6.03;;;4.45;;
59074;SDS011;44860;53.020;6.738;2024-03-02T02:30:20;5.88;;;4.40;;
59074;SDS011;44860;53.020;6.738;2024-03-02T02:32:47;5.45;;;4.20;;
59074;SDS011;44860;53.020;6.738;2024-03-02T02:35:13;5.80;;;4.13;;
59074;SDS011;44860;53.020;6.738;2024-03-02T02:37:39;6.75;;;4.38;;
59074;SDS011;44860;53.020;6.738;2024-03-02T02:40:05;6.53;;;4.07;;
59074;SDS011;44860;53.020;6.738;2024-03-02T02:42:31;6.65;;;4.47;;
59074;SDS011;44860;53.020;6.738;2024-03-02T02:44:56;6.82;;;4.10;;
59074;SDS011;44860;53.020;6.738;2024-03-02T02:47:22;5.53;;;4.20;;
59074;SDS011;44860;53.020;6.738;2024-03-02T02:49:48;5.20;;;4.03;;
59074;SDS011;44860;53.020;6.738;2024-03-02T02:52:13;4.72;;;3.92;;
59074;SDS011;44860;53.020;6.738;2024-03-02T02:54:39;5.88;;;4.03;;
59074;SDS011;44860;53.020;6.738;2024-03-02T02:57:04;5.88;;;3.70;;
59074;SDS011;44860;53.020;6.738;2024-03-02T02:59:30;4.85;;;3.50;;
59074;SDS011;44860;53.020;6.738;2024-03-02T03:01:56;5.53;;;3.75;;
59074;SDS011;44860;53.020;6.738;2024-03-02T03:04:21;4.97;;;3.67;;
59074;SDS011;44860;53.020;6.738;2024-03-02T03:06:47;5.20;;;3.63;;
59074;SDS011;44860;53.020;6.738;2024-03-02T03:09:12;5.20;;;3.30;;
59074;SDS011;44860;53.020;6.738;2024-03-02T03:11:38;4.30;;;3.13;;
59074;SDS011;44860;53.020;6.738;2024-03-02T03:14:04;5.35;;;3.35;;
59074;SDS011;44860;53.020;6.738;2024-03-02T03:16:30;4.85;;;3.13;;
59074;SDS011;44860;53.020;6.738;2024-03-02T03:18:55;5.68;;;3.50;;
59074;SDS011;44860;53.020;6.738;2024-03-02T03:21:21;4.43;;;3.00;;
59074;SDS011;44860;53.020;6.738;2024-03-02T03:23:47;5.57;;;2.65;;
59074;SDS011;44860;53.020;6.738;2024-03-02T03:26:12;4.10;;;3.17;;
59074;SDS011;44860;53.020;6.738;2024-03-02T03:28:38;5.53;;;3.00;;
59074;SDS011;44860;53.020;6.738;2024-03-02T03:31:04;4.53;;;2.97;;
59074;SDS011;44860;53.020;6.738;2024-03-02T03:33:29;6.03;;;3.10;;
59074;SDS011;44860;53.020;6.738;2024-03-02T03:35:55;5.43;;;3.40;;
59074;SDS011;44860;53.020;6.738;2024-03-02T03:38:21;4.68;;;3.25;;
59074;SDS011;44860;53.020;6.738;2024-03-02T03:40:46;4.45;;;3.40;;
59074;SDS011;44860;53.020;6.738;2024-03-02T03:43:12;5.20;;;3.10;;
59074;SDS011;44860;53.020;6.738;2024-03-02T03:45:38;6.13;;;3.28;;
59074;SDS011;44860;53.020;6.738;2024-03-02T03:48:04;3.78;;;3.05;;
59074;SDS011;44860;53.020;6.738;2024-03-02T03:50:30;5.68;;;3.30;;
59074;SDS011;44860;53.020;6.738;2024-03-02T03:52:55;4.65;;;3.40;;
59074;SDS011;44860;53.020;6.738;2024-03-02T03:55:21;4.85;;;3.35;;
59074;SDS011;44860;53.020;6.738;2024-03-02T03:57:46;5.03;;;3.60;;
59074;SDS011;44860;53.020;6.738;2024-03-02T04:00:12;4.55;;;3.42;;
59074;SDS011;44860;53.020;6.738;2024-03-02T04:02:38;6.28;;;3.28;;
59074;SDS011;44860;53.020;6.738;2024-03-02T04:05:04;5.00;;;3.20;;
59074;SDS011;44860;53.020;6.738;2024-03-02T04:07:34;5.38;;;3.47;;
59074;SDS011;44860;53.020;6.738;2024-03-02T04:10:05;5.32;;;3.40;;
59074;SDS011;44860;53.020;6.738;2024-03-02T04:12:33;4.97;;;3.60;;
59074;SDS011;44860;53.020;6.738;2024-03-02T04:15:00;5.97;;;3.60;;
59074;SDS011;44860;53.020;6.738;2024-03-02T04:17:26;6.00;;;3.75;;
59074;SDS011;44860;53.020;6.738;2024-03-02T04:19:52;4.53;;;3.38;;
59074;SDS011;44860;53.020;6.738;2024-03-02T04:22:18;5.00;;;3.45;;
59074;SDS011;44860;53.020;6.738;2024-03-02T04:24:43;5.50;;;3.60;;
59074;SDS011;44860;53.020;6.738;2024-03-02T04:27:09;6.38;;;3.63;;
59074;SDS011;44860;53.020;6.738;2024-03-02T04:29:35;4.90;;;3.25;;
59074;SDS011;44860;53.020;6.738;2024-03-02T04:32:00;4.72;;;3.20;;
59074;SDS011;44860;53.020;6.738;2024-03-02T04:34:26;4.88;;;3.30;;
59074;SDS011;44860;53.020;6.738;2024-03-02T04:36:52;3.65;;;3.17;;
59074;SDS011;44860;53.020;6.738;2024-03-02T04:39:17;4.22;;;3.15;;
59074;SDS011;44860;53.020;6.738;2024-03-02T04:41:43;5.50;;;3.83;;
59074;SDS011;44860;53.020;6.738;2024-03-02T04:44:10;5.22;;;3.30;;
59074;SDS011;44860;53.020;6.738;2024-03-02T04:46:36;4.68;;;3.20;;
59074;SDS011;44860;53.020;6.738;2024-03-02T04:49:01;4.93;;;3.20;;
59074;SDS011;44860;53.020;6.738;2024-03-02T04:51:27;4.53;;;3.30;;
59074;SDS011;44860;53.020;6.738;2024-03-02T04:53:53;5.10;;;3.25;;
59074;SDS011;44860;53.020;6.738;2024-03-02T04:56:18;4.13;;;3.15;;
59074;SDS011;44860;53.020;6.738;2024-03-02T04:58:53;4.28;;;3.22;;
59074;SDS011;44860;53.020;6.738;2024-03-02T05:01:18;4.93;;;3.28;;
59074;SDS011;44860;53.020;6.738;2024-03-02T05:03:44;6.45;;;3.75;;
59074;SDS011;44860;53.020;6.738;2024-03-02T05:06:10;5.85;;;3.65;;
59074;SDS011;44860;53.020;6.738;2024-03-02T05:08:36;5.03;;;3.63;;
59074;SDS011;44860;53.020;6.738;2024-03-02T05:11:01;5.70;;;3.75;;
59074;SDS011;44860;53.020;6.738;2024-03-02T05:13:45;6.57;;;3.38;;
59074;SDS011;44860;53.020;6.738;2024-03-02T05:16:11;6.53;;;3.72;;
59074;SDS011;44860;53.020;6.738;2024-03-02T05:18:37;5.15;;;3.50;;
59074;SDS011;44860;53.020;6.738;2024-03-02T05:21:03;5.03;;;4.05;;
59074;SDS011;44860;53.020;6.738;2024-03-02T05:23:29;4.85;;;3.70;;
59074;SDS011;44860;53.020;6.738;2024-03-02T05:25:54;4.93;;;3.60;;
59074;SDS011;44860;53.020;6.738;2024-03-02T05:28:20;5.32;;;3.40;;
59074;SDS011;44860;53.020;6.738;2024-03-02T05:30:45;5.80;;;3.90;;
59074;SDS011;44860;53.020;6.738;2024-03-02T05:33:12;6.63;;;3.95;;
59074;SDS011;44860;53.020;6.738;2024-03-02T05:35:38;5.82;;;3.58;;
59074;SDS011;44860;53.020;6.738;2024-03-02T05:38:03;5.93;;;3.50;;
59074;SDS011;44860;53.020;6.738;2024-03-02T05:40:29;4.25;;;3.25;;
59074;SDS011;44860;53.020;6.738;2024-03-02T05:42:55;5.20;;;3.63;;
59074;SDS011;44860;53.020;6.738;2024-03-02T05:45:20;5.97;;;3.80;;
59074;SDS011;44860;53.020;6.738;2024-03-02T05:47:46;5.47;;;3.42;;
59074;SDS011;44860;53.020;6.738;2024-03-02T05:50:12;5.25;;;3.42;;
59074;SDS011;44860;53.020;6.738;2024-03-02T05:52:37;5.85;;;3.60;;
59074;SDS011;44860;53.020;6.738;2024-03-02T05:55:07;5.22;;;3.90;;
59074;SDS011;44860;53.020;6.738;2024-03-02T05:57:32;5.18;;;3.70;;
59074;SDS011;44860;53.020;6.738;2024-03-02T06:00:14;4.70;;;3.47;;
59074;SDS011;44860;53.020;6.738;2024-03-02T06:02:42;5.38;;;3.33;;
59074;SDS011;44860;53.020;6.738;2024-03-02T06:05:07;6.50;;;3.30;;
59074;SDS011;44860;53.020;6.738;2024-03-02T06:07:33;5.57;;;3.88;;
59074;SDS011;44860;53.020;6.738;2024-03-02T06:09:59;5.43;;;3.45;;
59074;SDS011;44860;53.020;6.738;2024-03-02T06:12:25;4.97;;;3.63;;
59074;SDS011;44860;53.020;6.738;2024-03-02T06:14:51;5.45;;;3.40;;
59074;SDS011;44860;53.020;6.738;2024-03-02T06:17:16;8.10;;;3.70;;
59074;SDS011;44860;53.020;6.738;2024-03-02T06:19:42;5.28;;;3.50;;
59074;SDS011;44860;53.020;6.738;2024-03-02T06:22:07;6.60;;;3.78;;
59074;SDS011;44860;53.020;6.738;2024-03-02T06:24:35;5.32;;;3.75;;
59074;SDS011;44860;53.020;6.738;2024-03-02T06:27:02;6.65;;;4.20;;
59074;SDS011;44860;53.020;6.738;2024-03-02T06:29:29;7.25;;;4.00;;
59074;SDS011;44860;53.020;6.738;2024-03-02T06:31:57;7.45;;;4.03;;
59074;SDS011;44860;53.020;6.738;2024-03-02T06:34:22;6.28;;;4.28;;
59074;SDS011;44860;53.020;6.738;2024-03-02T06:36:48;5.70;;;3.95;;
59074;SDS011;44860;53.020;6.738;2024-03-02T06:39:14;6.22;;;4.30;;
59074;SDS011;44860;53.020;6.738;2024-03-02T06:41:40;5.72;;;3.85;;
59074;SDS011;44860;53.020;6.738;2024-03-02T06:44:05;4.40;;;3.85;;
59074;SDS011;44860;53.020;6.738;2024-03-02T06:46:31;6.22;;;3.78;;
59074;SDS011;44860;53.020;6.738;2024-03-02T06:48:57;7.55;;;4.03;;
59074;SDS011;44860;53.020;6.738;2024-03-02T06:51:23;6.07;;;4.10;;
59074;SDS011;44860;53.020;6.738;2024-03-02T06:53:48;5.57;;;4.03;;
59074;SDS011;44860;53.020;6.738;2024-03-02T06:56:14;6.05;;;3.92;;
59074;SDS011;44860;53.020;6.738;2024-03-02T06:58:40;5.53;;;4.20;;
59074;SDS011;44860;53.020;6.738;2024-03-02T07:01:05;7.47;;;3.88;;
59074;SDS011;44860;53.020;6.738;2024-03-02T07:03:31;6.35;;;4.15;;
59074;SDS011;44860;53.020;6.738;2024-03-02T07:05:57;4.97;;;3.95;;
59074;SDS011;44860;53.020;6.738;2024-03-02T07:08:23;7.85;;;4.68;;
59074;SDS011;44860;53.020;6.738;2024-03-02T07:10:49;7.10;;;4.22;;
59074;SDS011;44860;53.020;6.738;2024-03-02T07:13:14;5.60;;;4.03;;
59074;SDS011;44860;53.020;6.738;2024-03-02T07:15:40;5.75;;;3.70;;
59074;SDS011;44860;53.020;6.738;2024-03-02T07:18:24;4.65;;;3.90;;
59074;SDS011;44860;53.020;6.738;2024-03-02T07:20:50;7.20;;;4.13;;
59074;SDS011;44860;53.020;6.738;2024-03-02T07:23:15;5.05;;;3.90;;
59074;SDS011;44860;53.020;6.738;2024-03-02T07:25:41;5.05;;;3.72;;
59074;SDS011;44860;53.020;6.738;2024-03-02T07:28:07;5.18;;;3.50;;
59074;SDS011;44860;53.020;6.738;2024-03-02T07:30:32;4.97;;;3.72;;
59074;SDS011;44860;53.020;6.738;2024-03-02T07:32:58;5.32;;;3.80;;
59074;SDS011;44860;53.020;6.738;2024-03-02T07:35:24;5.03;;;3.50;;
59074;SDS011;44860;53.020;6.738;2024-03-02T07:37:53;5.75;;;4.07;;
59074;SDS011;44860;53.020;6.738;2024-03-02T07:40:20;5.60;;;3.70;;
59074;SDS011;44860;53.020;6.738;2024-03-02T07:42:46;5.95;;;3.47;;
59074;SDS011;44860;53.020;6.738;2024-03-02T07:45:11;5.10;;;3.47;;
59074;SDS011;44860;53.020;6.738;2024-03-02T07:47:37;5.78;;;3.70;;
59074;SDS011;44860;53.020;6.738;2024-03-02T07:50:03;5.97;;;3.28;;
59074;SDS011;44860;53.020;6.738;2024-03-02T07:52:31;3.95;;;3.28;;
59074;SDS011;44860;53.020;6.738;2024-03-02T07:54:57;4.55;;;3.45;;
59074;SDS011;44860;53.020;6.738;2024-03-02T07:57:23;4.68;;;3.20;;
59074;SDS011;44860;53.020;6.738;2024-03-02T07:59:49;5.57;;;3.38;;
59074;SDS011;44860;53.020;6.738;2024-03-02T08:02:15;4.50;;;2.90;;
59074;SDS011;44860;53.020;6.738;2024-03-02T08:04:40;6.32;;;3.10;;
59074;SDS011;44860;53.020;6.738;2024-03-02T08:07:06;3.75;;;2.83;;
59074;SDS011;44860;53.020;6.738;2024-03-02T08:09:33;3.88;;;2.67;;
59074;SDS011;44860;53.020;6.738;2024-03-02T08:11:59;4.13;;;2.90;;
59074;SDS011;44860;53.020;6.738;2024-03-02T08:14:24;4.45;;;2.67;;
59074;SDS011;44860;53.020;6.738;2024-03-02T08:16:50;3.28;;;2.72;;
59074;SDS011;44860;53.020;6.738;2024-03-02T08:19:16;3.58;;;3.03;;
59074;SDS011;44860;53.020;6.738;2024-03-02T08:21:42;6.50;;;3.13;;
59074;SDS011;44860;53.020;6.738;2024-03-02T08:24:08;8.57;;;3.25;;
59074;SDS011;44860;53.020;6.738;2024-03-02T08:26:34;5.03;;;2.90;;
59074;SDS011;44860;53.020;6.738;2024-03-02T08:29:00;4.95;;;3.10;;
59074;SDS011;44860;53.020;6.738;2024-03-02T08:31:29;4.13;;;3.03;;
59074;SDS011;44860;53.020;6.738;2024-03-02T08:33:55;6.15;;;3.47;;
59074;SDS011;44860;53.020;6.738;2024-03-02T08:36:22;4.80;;;2.97;;
59074;SDS011;44860;53.020;6.738;2024-03-02T08:38:51;5.97;;;2.95;;
59074;SDS011;44860;53.020;6.738;2024-03-02T08:41:17;4.50;;;3.03;;
59074;SDS011;44860;53.020;6.738;2024-03-02T08:43:43;3.65;;;2.70;;
59074;SDS011;44860;53.020;6.738;2024-03-02T08:46:09;3.92;;;2.70;;
59074;SDS011;44860;53.020;6.738;2024-03-02T08:48:35;4.78;;;2.75;;
59074;SDS011;44860;53.020;6.738;2024-03-02T08:51:00;4.00;;;2.58;;
59074;SDS011;44860;53.020;6.738;2024-03-02T08:53:27;4.28;;;2.80;;
59074;SDS011;44860;53.020;6.738;2024-03-02T08:55:53;4.63;;;2.25;;
59074;SDS011;44860;53.020;6.738;2024-03-02T08:58:20;5.40;;;2.65;;
59074;SDS011;44860;53.020;6.738;2024-03-02T09:00:46;5.65;;;2.60;;
59074;SDS011;44860;53.020;6.738;2024-03-02T09:03:12;3.55;;;2.60;;
59074;SDS011;44860;53.020;6.738;2024-03-02T09:05:38;3.45;;;2.15;;
59074;SDS011;44860;53.020;6.738;2024-03-02T09:08:03;3.00;;;1.88;;
59074;SDS011;44860;53.020;6.738;2024-03-02T09:10:29;2.03;;;1.83;;
59074;SDS011;44860;53.020;6.738;2024-03-02T09:12:57;4.90;;;1.95;;
59074;SDS011;44860;53.020;6.738;2024-03-02T09:15:23;4.35;;;1.75;;
59074;SDS011;44860;53.020;6.738;2024-03-02T09:17:49;3.58;;;1.67;;
59074;SDS011;44860;53.020;6.738;2024-03-02T09:20:14;2.45;;;1.63;;
59074;SDS011;44860;53.020;6.738;2024-03-02T09:22:41;3.30;;;1.50;;
59074;SDS011;44860;53.020;6.738;2024-03-02T09:25:07;2.70;;;1.38;;
59074;SDS011;44860;53.020;6.738;2024-03-02T09:27:36;2.90;;;1.75;;
59074;SDS011;44860;53.020;6.738;2024-03-02T09:30:03;2.45;;;1.50;;
59074;SDS011;44860;53.020;6.738;2024-03-02T09:32:39;2.47;;;1.25;;
59074;SDS011;44860;53.020;6.738;2024-03-02T09:35:04;4.13;;;1.90;;
59074;SDS011;44860;53.020;6.738;2024-03-02T09:37:30;2.42;;;1.10;;
59074;SDS011;44860;53.020;6.738;2024-03-02T09:39:56;2.42;;;1.10;;
59074;SDS011;44860;53.020;6.738;2024-03-02T09:42:22;2.05;;;1.00;;
59074;SDS011;44860;53.020;6.738;2024-03-02T09:44:49;3.40;;;1.40;;
59074;SDS011;44860;53.020;6.738;2024-03-02T09:47:14;1.60;;;1.20;;
59074;SDS011;44860;53.020;6.738;2024-03-02T09:49:40;3.67;;;1.80;;
59074;SDS011;44860;53.020;6.738;2024-03-02T09:52:06;2.40;;;1.48;;
59074;SDS011;44860;53.020;6.738;2024-03-02T09:54:32;3.92;;;1.42;;
59074;SDS011;44860;53.020;6.738;2024-03-02T09:56:58;4.45;;;1.60;;
59074;SDS011;44860;53.020;6.738;2024-03-02T09:59:24;3.40;;;1.58;;
59074;SDS011;44860;53.020;6.738;2024-03-02T10:01:56;2.40;;;1.58;;
59074;SDS011;44860;53.020;6.738;2024-03-02T10:04:26;3.35;;;1.60;;
59074;SDS011;44860;53.020;6.738;2024-03-02T10:07:11;2.85;;;1.30;;
59074;SDS011;44860;53.020;6.738;2024-03-02T10:09:37;3.22;;;1.55;;
59074;SDS011;44860;53.020;6.738;2024-03-02T10:12:03;2.20;;;1.50;;
59074;SDS011;44860;53.020;6.738;2024-03-02T10:14:30;3.03;;;1.40;;
59074;SDS011;44860;53.020;6.738;2024-03-02T10:17:01;4.97;;;1.88;;
59074;SDS011;44860;53.020;6.738;2024-03-02T10:19:28;1.75;;;1.30;;
59074;SDS011;44860;53.020;6.738;2024-03-02T10:21:58;3.55;;;1.40;;
59074;SDS011;44860;53.020;6.738;2024-03-02T10:24:24;4.72;;;1.50;;
59074;SDS011;44860;53.020;6.738;2024-03-02T10:26:50;2.78;;;1.50;;
59074;SDS011;44860;53.020;6.738;2024-03-02T10:29:17;2.03;;;1.50;;
59074;SDS011;44860;53.020;6.738;2024-03-02T10:31:43;3.15;;;1.60;;
59074;SDS011;44860;53.020;6.738;2024-03-02T10:34:13;3.17;;;1.52;;
59074;SDS011;44860;53.020;6.738;2024-03-02T10:36:41;2.55;;;1.63;;
59074;SDS011;44860;53.020;6.738;2024-03-02T10:39:08;6.50;;;1.95;;
59074;SDS011;44860;53.020;6.738;2024-03-02T10:41:36;5.43;;;2.00;;
59074;SDS011;44860;53.020;6.738;2024-03-02T10:44:06;5.00;;;1.90;;
59074;SDS011;44860;53.020;6.738;2024-03-02T10:46:34;2.45;;;1.70;;
59074;SDS011;44860;53.020;6.738;2024-03-02T10:49:02;4.68;;;2.25;;
59074;SDS011;44860;53.020;6.738;2024-03-02T10:51:29;4.60;;;1.90;;
59074;SDS011;44860;53.020;6.738;2024-03-02T10:53:59;4.35;;;1.77;;
59074;SDS011;44860;53.020;6.738;2024-03-02T10:56:32;4.63;;;1.90;;
59074;SDS011;44860;53.020;6.738;2024-03-02T10:59:03;4.65;;;2.20;;
59074;SDS011;44860;53.020;6.738;2024-03-02T11:01:36;3.03;;;2.30;;
59074;SDS011;44860;53.020;6.738;2024-03-02T11:04:04;3.55;;;2.20;;
59074;SDS011;44860;53.020;6.738;2024-03-02T11:06:34;4.22;;;2.30;;
59074;SDS011;44860;53.020;6.738;2024-03-02T11:09:05;5.50;;;2.30;;
59074;SDS011;44860;53.020;6.738;2024-03-02T11:11:36;3.42;;;2.20;;
59074;SDS011;44860;53.020;6.738;2024-03-02T11:14:05;4.20;;;2.20;;
59074;SDS011;44860;53.020;6.738;2024-03-02T11:16:36;3.55;;;2.13;;
59074;SDS011;44860;53.020;6.738;2024-03-02T11:19:10;4.15;;;2.15;;
59074;SDS011;44860;53.020;6.738;2024-03-02T11:21:38;3.00;;;2.00;;
59074;SDS011;44860;53.020;6.738;2024-03-02T11:26:52;5.07;;;2.40;;
59074;SDS011;44860;53.020;6.738;2024-03-02T11:32:38;3.95;;;2.60;;
59074;SDS011;44860;53.020;6.738;2024-03-02T11:34:57;3.85;;;2.90;;
59074;SDS011;44860;53.020;6.738;2024-03-02T11:37:23;3.90;;;2.67;;
59074;SDS011;44860;53.020;6.738;2024-03-02T11:39:50;4.13;;;2.50;;
59074;SDS011;44860;53.020;6.738;2024-03-02T11:42:16;4.03;;;2.25;;
59074;SDS011;44860;53.020;6.738;2024-03-02T11:44:43;6.15;;;2.75;;
59074;SDS011;44860;53.020;6.738;2024-03-02T11:47:11;3.80;;;2.28;;
59074;SDS011;44860;53.020;6.738;2024-03-02T11:49:44;3.95;;;2.70;;
59074;SDS011;44860;53.020;6.738;2024-03-02T11:52:13;5.40;;;2.55;;
59074;SDS011;44860;53.020;6.738;2024-03-02T11:54:46;5.00;;;2.53;;
59074;SDS011;44860;53.020;6.738;2024-03-02T11:57:14;5.70;;;2.80;;
59074;SDS011;44860;53.020;6.738;2024-03-02T11:59:41;3.70;;;2.90;;
59074;SDS011;44860;53.020;6.738;2024-03-02T12:02:12;4.75;;;2.80;;
59074;SDS011;44860;53.020;6.738;2024-03-02T12:04:43;4.28;;;2.97;;
59074;SDS011;44860;53.020;6.738;2024-03-02T12:07:10;4.50;;;2.65;;
59074;SDS011;44860;53.020;6.738;2024-03-02T12:09:36;3.40;;;2.60;;
59074;SDS011;44860;53.020;6.738;2024-03-02T12:12:06;4.63;;;2.72;;
59074;SDS011;44860;53.020;6.738;2024-03-02T12:14:35;5.93;;;2.70;;
59074;SDS011;44860;53.020;6.738;2024-03-02T12:17:03;5.18;;;2.50;;
59074;SDS011;44860;53.020;6.738;2024-03-02T12:19:31;5.20;;;2.75;;
59074;SDS011;44860;53.020;6.738;2024-03-02T12:21:57;5.50;;;3.00;;
59074;SDS011;44860;53.020;6.738;2024-03-02T12:24:26;5.00;;;3.00;;
59074;SDS011;44860;53.020;6.738;2024-03-02T12:26:53;8.05;;;3.10;;
59074;SDS011;44860;53.020;6.738;2024-03-02T12:29:19;5.28;;;3.10;;
59074;SDS011;44860;53.020;6.738;2024-03-02T12:31:49;6.13;;;3.60;;
59074;SDS011;44860;53.020;6.738;2024-03-02T12:34:18;5.70;;;3.42;;
59074;SDS011;44860;53.020;6.738;2024-03-02T12:36:46;5.30;;;3.83;;
59074;SDS011;44860;53.020;6.738;2024-03-02T12:39:14;5.10;;;3.80;;
59074;SDS011;44860;53.020;6.738;2024-03-02T12:41:41;8.77;;;4.78;;
59074;SDS011;44860;53.020;6.738;2024-03-02T12:44:07;5.32;;;4.10;;
59074;SDS011;44860;53.020;6.738;2024-03-02T12:46:33;12.98;;;4.43;;
59074;SDS011;44860;53.020;6.738;2024-03-02T12:49:10;6.60;;;4.40;;
59074;SDS011;44860;53.020;6.738;2024-03-02T12:51:38;6.35;;;4.35;;
59074;SDS011;44860;53.020;6.738;2024-03-02T12:54:08;6.22;;;4.65;;
59074;SDS011;44860;53.020;6.738;2024-03-02T12:56:37;6.35;;;4.80;;
59074;SDS011;44860;53.020;6.738;2024-03-02T12:59:03;6.35;;;4.32;;
59074;SDS011;44860;53.020;6.738;2024-03-02T13:01:30;6.57;;;4.20;;
59074;SDS011;44860;53.020;6.738;2024-03-02T13:03:57;6.85;;;4.68;;
59074;SDS011;44860;53.020;6.738;2024-03-02T13:06:23;7.32;;;4.05;;
59074;SDS011;44860;53.020;6.738;2024-03-02T13:08:49;6.20;;;3.95;;
59074;SDS011;44860;53.020;6.738;2024-03-02T13:11:15;4.90;;;3.60;;
59074;SDS011;44860;53.020;6.738;2024-03-02T13:13:41;6.40;;;4.10;;
59074;SDS011;44860;53.020;6.738;2024-03-02T13:16:10;5.95;;;3.35;;
59074;SDS011;44860;53.020;6.738;2024-03-02T13:18:40;4.63;;;3.60;;
59074;SDS011;44860;53.020;6.738;2024-03-02T13:21:06;4.63;;;3.80;;
59074;SDS011;44860;53.020;6.738;2024-03-02T13:23:33;6.15;;;3.80;;
59074;SDS011;44860;53.020;6.738;2024-03-02T13:25:58;5.40;;;3.70;;
59074;SDS011;44860;53.020;6.738;2024-03-02T13:28:25;5.38;;;3.70;;
59074;SDS011;44860;53.020;6.738;2024-03-02T13:30:50;4.70;;;3.50;;
59074;SDS011;44860;53.020;6.738;2024-03-02T13:33:17;4.63;;;3.22;;
59074;SDS011;44860;53.020;6.738;2024-03-02T13:35:50;5.35;;;3.30;;
59074;SDS011;44860;53.020;6.738;2024-03-02T13:38:20;5.50;;;3.20;;
59074;SDS011;44860;53.020;6.738;2024-03-02T13:40:46;4.82;;;2.95;;
59074;SDS011;44860;53.020;6.738;2024-03-02T13:43:16;5.05;;;2.47;;
59074;SDS011;44860;53.020;6.738;2024-03-02T13:45:42;4.07;;;2.30;;
59074;SDS011;44860;53.020;6.738;2024-03-02T13:48:08;3.75;;;2.20;;
59074;SDS011;44860;53.020;6.738;2024-03-02T13:50:34;3.95;;;2.25;;
59074;SDS011;44860;53.020;6.738;2024-03-02T13:53:00;3.95;;;2.13;;
59074;SDS011;44860;53.020;6.738;2024-03-02T13:55:25;3.67;;;2.08;;
59074;SDS011;44860;53.020;6.738;2024-03-02T13:57:51;4.15;;;2.13;;
59074;SDS011;44860;53.020;6.738;2024-03-02T14:00:17;2.65;;;1.80;;
59074;SDS011;44860;53.020;6.738;2024-03-02T14:02:43;3.95;;;2.03;;
59074;SDS011;44860;53.020;6.738;2024-03-02T14:05:10;3.10;;;1.60;;
59074;SDS011;44860;53.020;6.738;2024-03-02T14:07:42;2.75;;;1.75;;
59074;SDS011;44860;53.020;6.738;2024-03-02T14:10:11;2.08;;;1.33;;
59074;SDS011;44860;53.020;6.738;2024-03-02T14:12:37;4.35;;;1.50;;
59074;SDS011;44860;53.020;6.738;2024-03-02T14:15:03;5.05;;;1.67;;
59074;SDS011;44860;53.020;6.738;2024-03-02T14:17:29;2.63;;;1.45;;
59074;SDS011;44860;53.020;6.738;2024-03-02T14:19:56;4.10;;;1.73;;
59074;SDS011;44860;53.020;6.738;2024-03-02T14:22:24;3.85;;;1.45;;
59074;SDS011;44860;53.020;6.738;2024-03-02T14:24:50;2.97;;;1.30;;
59074;SDS011;44860;53.020;6.738;2024-03-02T14:27:15;2.78;;;1.63;;
59074;SDS011;44860;53.020;6.738;2024-03-02T14:29:44;4.38;;;1.70;;
59074;SDS011;44860;53.020;6.738;2024-03-02T14:32:10;4.10;;;2.17;;
59074;SDS011;44860;53.020;6.738;2024-03-02T14:34:36;3.50;;;1.60;;
59074;SDS011;44860;53.020;6.738;2024-03-02T14:37:01;3.40;;;1.85;;
59074;SDS011;44860;53.020;6.738;2024-03-02T14:39:28;3.28;;;1.85;;
59074;SDS011;44860;53.020;6.738;2024-03-02T14:41:54;3.08;;;1.80;;
59074;SDS011;44860;53.020;6.738;2024-03-02T14:44:20;3.72;;;1.95;;
59074;SDS011;44860;53.020;6.738;2024-03-02T14:46:48;2.85;;;2.08;;
59074;SDS011;44860;53.020;6.738;2024-03-02T14:49:15;5.18;;;2.65;;
59074;SDS011;44860;53.020;6.738;2024-03-02T14:51:41;3.55;;;2.53;;
59074;SDS011;44860;53.020;6.738;2024-03-02T14:54:06;5.18;;;2.70;;